sensor_id;sensor_type;location;lat;lon;timestamp;pressure;altitude;pressure_sealevel;temperature;humidity
43161;BME280;40968;52.342;5.528;2023-10-31T00:00:23;99524.19;;;9.35;96.90
43161;BME280;40968;52.342;5.528;2023-10-31T00:02:50;99556.03;;;9.57;97.02
43161;BME280;40968;52.342;5.528;2023-10-31T00:05:18;99431.25;;;8.78;96.65
43161;BME280;40968;52.342;5.528;2023-10-31T00:07:44;99565.06;;;9.56;96.99
43161;BME280;40968;52.342;5.528;2023-10-31T00:10:11;99532.63;;;9.30;96.76
43161;BME280;40968;52.342;5.528;2023-10-31T00:12:38;99554.75;;;9.42;96.56
43161;BME280;40968;52.342;5.528;2023-10-31T00:15:05;99580.38;;;9.54;96.49
43161;BME280;40968;52.342;5.528;2023-10-31T00:17:32;99510.06;;;9.03;96.23
43161;BME280;40968;52.342;5.528;2023-10-31T00:19:59;99574.47;;;9.41;96.01
43161;BME280;40968;52.342;5.528;2023-10-31T00:22:27;99587.00;;;9.50;95.99
43161;BME280;40968;52.342;5.528;2023-10-31T00:24:54;99562.88;;;9.31;95.91
43161;BME280;40968;52.342;5.528;2023-10-31T00:27:20;99559.34;;;9.30;95.97
43161;BME280;40968;52.342;5.528;2023-10-31T00:29:47;99578.25;;;9.48;95.60
43161;BME280;40968;52.342;5.528;2023-10-31T00:32:13;99536.00;;;9.22;95.59
43161;BME280;40968;52.342;5.528;2023-10-31T00:34:40;99577.69;;;9.44;95.21
43161;BME280;40968;52.342;5.528;2023-10-31T00:37:06;99582.19;;;9.44;95.03
43161;BME280;40968;52.342;5.528;2023-10-31T00:39:34;99550.06;;;9.24;95.05
43161;BME280;40968;52.342;5.528;2023-10-31T00:42:01;99578.69;;;9.43;94.88
43161;BME280;40968;52.342;5.528;2023-10-31T00:44:28;99540.19;;;9.15;94.69
43161;BME280;40968;52.342;5.528;2023-10-31T00:46:54;99580.50;;;9.43;94.89
43161;BME280;40968;52.342;5.528;2023-10-31T00:49:21;99570.19;;;9.28;94.82
43161;BME280;40968;52.342;5.528;2023-10-31T00:51:47;99566.38;;;9.21;94.85
43161;BME280;40968;52.342;5.528;2023-10-31T00:54:14;99609.22;;;9.41;94.91
43161;BME280;40968;52.342;5.528;2023-10-31T00:56:42;99612.88;;;9.40;94.99
43161;BME280;40968;52.342;5.528;2023-10-31T00:59:08;99590.59;;;9.29;95.21
43161;BME280;40968;52.342;5.528;2023-10-31T01:01:35;99585.09;;;9.21;95.37
43161;BME280;40968;52.342;5.528;2023-10-31T01:04:02;99565.78;;;9.08;95.21
43161;BME280;40968;52.342;5.528;2023-10-31T01:06:28;99592.16;;;9.22;95.20
43161;BME280;40968;52.342;5.528;2023-10-31T01:08:55;99628.91;;;9.40;95.19
43161;BME280;40968;52.342;5.528;2023-10-31T01:11:21;99594.81;;;9.22;95.36
43161;BME280;40968;52.342;5.528;2023-10-31T01:13:49;99595.34;;;9.16;95.09
43161;BME280;40968;52.342;5.528;2023-10-31T01:16:16;99574.72;;;8.97;95.23
43161;BME280;40968;52.342;5.528;2023-10-31T01:18:42;99641.56;;;9.38;95.18
43161;BME280;40968;52.342;5.528;2023-10-31T01:21:09;99638.88;;;9.38;95.34
43161;BME280;40968;52.342;5.528;2023-10-31T01:23:35;99590.97;;;9.05;95.19
43161;BME280;40968;52.342;5.528;2023-10-31T01:26:02;99584.75;;;9.05;95.35
43161;BME280;40968;52.342;5.528;2023-10-31T01:28:29;99609.41;;;9.18;95.71
43161;BME280;40968;52.342;5.528;2023-10-31T01:30:56;99571.81;;;9.00;95.74
43161;BME280;40968;52.342;5.528;2023-10-31T01:33:23;99614.38;;;9.23;95.88
43161;BME280;40968;52.342;5.528;2023-10-31T01:35:50;99638.44;;;9.33;96.23
43161;BME280;40968;52.342;5.528;2023-10-31T01:38:16;99494.66;;;8.45;96.21
43161;BME280;40968;52.342;5.528;2023-10-31T01:40:43;99475.44;;;8.30;95.98
43161;BME280;40968;52.342;5.528;2023-10-31T01:43:10;99584.88;;;8.93;96.58
43161;BME280;40968;52.342;5.528;2023-10-31T01:45:37;99631.81;;;9.17;96.59
43161;BME280;40968;52.342;5.528;2023-10-31T01:48:05;99546.47;;;8.63;96.51
43161;BME280;40968;52.342;5.528;2023-10-31T01:50:32;99627.69;;;9.13;96.59
43161;BME280;40968;52.342;5.528;2023-10-31T01:52:58;99634.59;;;9.16;96.52
43161;BME280;40968;52.342;5.528;2023-10-31T01:55:25;99585.41;;;8.87;96.69
43161;BME280;40968;52.342;5.528;2023-10-31T01:57:54;99653.94;;;9.29;96.69
43161;BME280;40968;52.342;5.528;2023-10-31T02:00:21;99648.72;;;9.27;96.60
43161;BME280;40968;52.342;5.528;2023-10-31T02:02:48;99656.75;;;9.27;96.69
43161;BME280;40968;52.342;5.528;2023-10-31T02:05:19;99657.72;;;9.26;96.38
43161;BME280;40968;52.342;5.528;2023-10-31T02:07:46;99609.88;;;8.92;96.52
43161;BME280;40968;52.342;5.528;2023-10-31T02:10:12;99614.25;;;8.93;96.74
43161;BME280;40968;52.342;5.528;2023-10-31T02:12:39;99667.69;;;9.24;96.70
43161;BME280;40968;52.342;5.528;2023-10-31T02:15:08;99630.19;;;9.05;96.82
43161;BME280;40968;52.342;5.528;2023-10-31T02:17:34;99675.47;;;9.27;97.03
43161;BME280;40968;52.342;5.528;2023-10-31T02:20:01;99676.44;;;9.26;97.04
43161;BME280;40968;52.342;5.528;2023-10-31T02:22:29;99678.00;;;9.29;97.30
43161;BME280;40968;52.342;5.528;2023-10-31T02:24:55;99683.22;;;9.31;97.52
43161;BME280;40968;52.342;5.528;2023-10-31T02:27:22;99621.47;;;9.03;97.74
43161;BME280;40968;52.342;5.528;2023-10-31T02:29:48;99684.63;;;9.35;97.79
43161;BME280;40968;52.342;5.528;2023-10-31T02:32:15;99690.56;;;9.38;97.75
43161;BME280;40968;52.342;5.528;2023-10-31T02:34:42;99681.56;;;9.39;97.99
43161;BME280;40968;52.342;5.528;2023-10-31T02:37:08;99684.09;;;9.41;98.05
43161;BME280;40968;52.342;5.528;2023-10-31T02:39:36;99667.44;;;9.27;98.18
43161;BME280;40968;52.342;5.528;2023-10-31T02:42:03;99683.97;;;9.42;98.29
43161;BME280;40968;52.342;5.528;2023-10-31T02:44:30;99679.28;;;9.35;98.40
43161;BME280;40968;52.342;5.528;2023-10-31T02:46:57;99636.69;;;9.12;98.43
43161;BME280;40968;52.342;5.528;2023-10-31T02:49:23;99611.59;;;8.93;98.43
43161;BME280;40968;52.342;5.528;2023-10-31T02:51:50;99673.50;;;9.29;98.87
43161;BME280;40968;52.342;5.528;2023-10-31T02:54:16;99648.81;;;9.16;98.72
43161;BME280;40968;52.342;5.528;2023-10-31T02:56:44;99707.50;;;9.49;98.76
43161;BME280;40968;52.342;5.528;2023-10-31T02:59:11;99599.00;;;8.84;98.84
43161;BME280;40968;52.342;5.528;2023-10-31T03:01:37;99673.22;;;9.33;99.00
43161;BME280;40968;52.342;5.528;2023-10-31T03:04:04;99625.13;;;9.02;98.86
43161;BME280;40968;52.342;5.528;2023-10-31T03:06:31;99676.75;;;9.33;98.88
43161;BME280;40968;52.342;5.528;2023-10-31T03:08:57;99706.38;;;9.51;98.98
43161;BME280;40968;52.342;5.528;2023-10-31T03:11:24;99583.06;;;8.73;98.78
43161;BME280;40968;52.342;5.528;2023-10-31T03:13:52;99652.59;;;9.13;98.73
43161;BME280;40968;52.342;5.528;2023-10-31T03:16:19;99716.94;;;9.53;98.91
43161;BME280;40968;52.342;5.528;2023-10-31T03:18:46;99684.91;;;9.32;98.97
43161;BME280;40968;52.342;5.528;2023-10-31T03:21:13;99733.97;;;9.52;98.72
43161;BME280;40968;52.342;5.528;2023-10-31T03:23:41;99720.72;;;9.50;98.81
43161;BME280;40968;52.342;5.528;2023-10-31T03:26:08;99739.31;;;9.52;98.78
43161;BME280;40968;52.342;5.528;2023-10-31T03:28:34;99730.41;;;9.41;98.73
43161;BME280;40968;52.342;5.528;2023-10-31T03:31:02;99750.97;;;9.51;98.91
43161;BME280;40968;52.342;5.528;2023-10-31T03:33:29;99715.56;;;9.27;98.78
43161;BME280;40968;52.342;5.528;2023-10-31T03:35:55;99728.53;;;9.32;98.70
43161;BME280;40968;52.342;5.528;2023-10-31T03:38:22;99757.31;;;9.50;98.94
43161;BME280;40968;52.342;5.528;2023-10-31T03:40:49;99717.34;;;9.17;98.69
43161;BME280;40968;52.342;5.528;2023-10-31T03:43:15;99771.78;;;9.47;98.81
43161;BME280;40968;52.342;5.528;2023-10-31T03:45:42;99728.50;;;9.22;98.65
43161;BME280;40968;52.342;5.528;2023-10-31T03:48:09;99777.56;;;9.42;98.45
43161;BME280;40968;52.342;5.528;2023-10-31T03:50:36;99697.47;;;8.89;98.45
43161;BME280;40968;52.342;5.528;2023-10-31T03:53:03;99784.75;;;9.42;98.32
43161;BME280;40968;52.342;5.528;2023-10-31T03:55:29;99761.69;;;9.20;98.35
43161;BME280;40968;52.342;5.528;2023-10-31T03:57:56;99668.34;;;8.65;98.27
43161;BME280;40968;52.342;5.528;2023-10-31T04:00:23;99696.97;;;8.74;97.99
43161;BME280;40968;52.342;5.528;2023-10-31T04:02:49;99803.72;;;9.39;98.14
43161;BME280;40968;52.342;5.528;2023-10-31T04:05:17;99804.81;;;9.36;97.73
43161;BME280;40968;52.342;5.528;2023-10-31T04:07:46;99804.50;;;9.29;98.11
43161;BME280;40968;52.342;5.528;2023-10-31T04:10:13;99783.31;;;9.17;97.84
43161;BME280;40968;52.342;5.528;2023-10-31T04:12:41;99813.94;;;9.34;97.74
43161;BME280;40968;52.342;5.528;2023-10-31T04:15:08;99796.53;;;9.18;97.53
43161;BME280;40968;52.342;5.528;2023-10-31T04:17:35;99671.88;;;8.33;97.25
43161;BME280;40968;52.342;5.528;2023-10-31T04:20:02;99818.59;;;9.32;97.25
43161;BME280;40968;52.342;5.528;2023-10-31T04:22:30;99821.38;;;9.30;97.13
43161;BME280;40968;52.342;5.528;2023-10-31T04:24:56;99816.56;;;9.24;97.37
43161;BME280;40968;52.342;5.528;2023-10-31T04:27:23;99776.72;;;9.00;97.15
43161;BME280;40968;52.342;5.528;2023-10-31T04:29:49;99826.88;;;9.28;97.32
43161;BME280;40968;52.342;5.528;2023-10-31T04:32:16;99829.28;;;9.32;97.20
43161;BME280;40968;52.342;5.528;2023-10-31T04:34:43;99824.91;;;9.31;97.31
43161;BME280;40968;52.342;5.528;2023-10-31T04:37:09;99823.94;;;9.32;97.10
43161;BME280;40968;52.342;5.528;2023-10-31T04:39:37;99778.88;;;9.06;97.27
43161;BME280;40968;52.342;5.528;2023-10-31T04:42:04;99782.28;;;9.08;97.32
43161;BME280;40968;52.342;5.528;2023-10-31T04:44:30;99768.47;;;9.03;97.30
43161;BME280;40968;52.342;5.528;2023-10-31T04:46:57;99785.66;;;9.10;97.20
43161;BME280;40968;52.342;5.528;2023-10-31T04:49:23;99827.31;;;9.34;97.38
43161;BME280;40968;52.342;5.528;2023-10-31T04:51:50;99832.66;;;9.34;97.75
43161;BME280;40968;52.342;5.528;2023-10-31T04:54:17;99826.47;;;9.33;97.67
43161;BME280;40968;52.342;5.528;2023-10-31T04:56:44;99833.63;;;9.33;98.07
43161;BME280;40968;52.342;5.528;2023-10-31T04:59:11;99834.50;;;9.33;98.10
43161;BME280;40968;52.342;5.528;2023-10-31T05:01:38;99799.47;;;9.15;98.29
43161;BME280;40968;52.342;5.528;2023-10-31T05:04:04;99839.72;;;9.35;98.33
43161;BME280;40968;52.342;5.528;2023-10-31T05:06:31;99785.78;;;9.08;98.22
43161;BME280;40968;52.342;5.528;2023-10-31T05:08:57;99829.03;;;9.35;98.25
43161;BME280;40968;52.342;5.528;2023-10-31T05:11:24;99751.28;;;8.84;98.36
43161;BME280;40968;52.342;5.528;2023-10-31T05:13:52;99832.53;;;9.35;98.45
43161;BME280;40968;52.342;5.528;2023-10-31T05:16:19;99710.03;;;8.56;98.23
43161;BME280;40968;52.342;5.528;2023-10-31T05:18:46;99809.22;;;9.16;98.58
43161;BME280;40968;52.342;5.528;2023-10-31T05:21:12;99779.25;;;9.01;98.80
43161;BME280;40968;52.342;5.528;2023-10-31T05:23:39;99759.19;;;8.86;98.40
43161;BME280;40968;52.342;5.528;2023-10-31T05:26:06;99805.81;;;9.14;98.45
43161;BME280;40968;52.342;5.528;2023-10-31T05:28:33;99831.97;;;9.32;98.21
43161;BME280;40968;52.342;5.528;2023-10-31T05:31:00;99841.66;;;9.33;98.50
43161;BME280;40968;52.342;5.528;2023-10-31T05:33:27;99840.00;;;9.32;98.29
43161;BME280;40968;52.342;5.528;2023-10-31T05:35:53;99824.97;;;9.19;98.23
43161;BME280;40968;52.342;5.528;2023-10-31T05:38:20;99817.47;;;9.13;98.30
43161;BME280;40968;52.342;5.528;2023-10-31T05:40:47;99842.19;;;9.26;98.25
43161;BME280;40968;52.342;5.528;2023-10-31T05:43:13;99846.59;;;9.27;98.31
43161;BME280;40968;52.342;5.528;2023-10-31T05:45:40;99859.41;;;9.34;98.22
43161;BME280;40968;52.342;5.528;2023-10-31T05:48:08;99846.34;;;9.19;98.20
43161;BME280;40968;52.342;5.528;2023-10-31T05:50:34;99844.66;;;9.18;98.31
43161;BME280;40968;52.342;5.528;2023-10-31T05:53:01;99873.75;;;9.33;98.31
43161;BME280;40968;52.342;5.528;2023-10-31T05:55:27;99615.94;;;7.77;97.91
43161;BME280;40968;52.342;5.528;2023-10-31T05:57:54;99855.63;;;9.15;98.11
43161;BME280;40968;52.342;5.528;2023-10-31T06:00:20;99754.38;;;8.47;97.91
43161;BME280;40968;52.342;5.528;2023-10-31T06:02:47;99763.34;;;8.46;97.89
43161;BME280;40968;52.342;5.528;2023-10-31T06:05:15;99886.09;;;9.24;97.97
43161;BME280;40968;52.342;5.528;2023-10-31T06:07:41;99867.34;;;9.03;98.00
43161;BME280;40968;52.342;5.528;2023-10-31T06:10:09;99899.59;;;9.22;97.95
43161;BME280;40968;52.342;5.528;2023-10-31T06:12:35;99869.03;;;9.04;97.81
43161;BME280;40968;52.342;5.528;2023-10-31T06:15:02;99757.03;;;8.36;97.80
43161;BME280;40968;52.342;5.528;2023-10-31T06:17:29;99900.94;;;9.17;97.92
43161;BME280;40968;52.342;5.528;2023-10-31T06:19:58;99775.88;;;8.34;97.43
43161;BME280;40968;52.342;5.528;2023-10-31T06:22:26;99871.50;;;8.95;97.81
43161;BME280;40968;52.342;5.528;2023-10-31T06:24:53;99799.28;;;8.42;97.46
43161;BME280;40968;52.342;5.528;2023-10-31T06:27:19;99647.38;;;7.51;97.40
43161;BME280;40968;52.342;5.528;2023-10-31T06:29:46;99907.19;;;9.06;97.73
43161;BME280;40968;52.342;5.528;2023-10-31T06:32:12;99881.84;;;8.89;97.69
43161;BME280;40968;52.342;5.528;2023-10-31T06:34:39;99924.53;;;9.11;97.79
43161;BME280;40968;52.342;5.528;2023-10-31T06:37:05;99880.06;;;8.78;97.73
43161;BME280;40968;52.342;5.528;2023-10-31T06:39:33;99937.19;;;9.09;97.95
43161;BME280;40968;52.342;5.528;2023-10-31T06:42:00;99785.72;;;8.22;97.76
43161;BME280;40968;52.342;5.528;2023-10-31T06:44:26;99878.38;;;8.77;97.87
43161;BME280;40968;52.342;5.528;2023-10-31T06:46:53;99918.13;;;9.03;98.06
43161;BME280;40968;52.342;5.528;2023-10-31T06:49:19;99796.78;;;8.18;97.69
43161;BME280;40968;52.342;5.528;2023-10-31T06:51:47;99886.50;;;8.75;97.85
43161;BME280;40968;52.342;5.528;2023-10-31T06:54:14;99939.72;;;9.11;97.97
43161;BME280;40968;52.342;5.528;2023-10-31T06:56:42;99807.06;;;8.34;97.78
43161;BME280;40968;52.342;5.528;2023-10-31T06:59:08;99929.28;;;9.08;97.87
43161;BME280;40968;52.342;5.528;2023-10-31T07:01:35;99817.47;;;8.37;97.93
43161;BME280;40968;52.342;5.528;2023-10-31T07:04:03;99734.03;;;7.79;97.94
43161;BME280;40968;52.342;5.528;2023-10-31T07:06:30;99758.88;;;7.91;97.86
43161;BME280;40968;52.342;5.528;2023-10-31T07:08:56;99951.84;;;9.15;98.05
43161;BME280;40968;52.342;5.528;2023-10-31T07:11:25;99953.56;;;9.16;98.19
43161;BME280;40968;52.342;5.528;2023-10-31T07:13:53;99914.75;;;8.89;98.18
43161;BME280;40968;52.342;5.528;2023-10-31T07:16:20;99957.81;;;9.19;98.32
43161;BME280;40968;52.342;5.528;2023-10-31T07:18:46;99914.75;;;8.89;98.07
43161;BME280;40968;52.342;5.528;2023-10-31T07:21:13;99979.81;;;9.22;98.21
43161;BME280;40968;52.342;5.528;2023-10-31T07:23:39;99912.22;;;8.88;98.21
43161;BME280;40968;52.342;5.528;2023-10-31T07:26:06;99870.75;;;8.61;98.30
43161;BME280;40968;52.342;5.528;2023-10-31T07:28:32;99987.69;;;9.24;98.39
43161;BME280;40968;52.342;5.528;2023-10-31T07:31:01;99962.81;;;9.12;98.27
43161;BME280;40968;52.342;5.528;2023-10-31T07:33:27;99983.03;;;9.26;98.35
43161;BME280;40968;52.342;5.528;2023-10-31T07:35:54;99996.31;;;9.27;98.47
43161;BME280;40968;52.342;5.528;2023-10-31T07:38:21;99988.28;;;9.27;98.22
43161;BME280;40968;52.342;5.528;2023-10-31T07:40:47;99931.66;;;8.90;98.07
43161;BME280;40968;52.342;5.528;2023-10-31T07:43:15;99870.78;;;8.50;98.28
43161;BME280;40968;52.342;5.528;2023-10-31T07:45:42;99999.69;;;9.29;98.35
43161;BME280;40968;52.342;5.528;2023-10-31T07:48:10;100002.09;;;9.33;98.28
43161;BME280;40968;52.342;5.528;2023-10-31T07:50:36;100003.81;;;9.34;98.62
43161;BME280;40968;52.342;5.528;2023-10-31T07:53:03;100010.84;;;9.35;98.58
43161;BME280;40968;52.342;5.528;2023-10-31T07:55:29;99859.25;;;8.49;98.53
43161;BME280;40968;52.342;5.528;2023-10-31T07:57:56;99983.66;;;9.18;98.69
43161;BME280;40968;52.342;5.528;2023-10-31T08:00:22;100016.94;;;9.37;98.78
43161;BME280;40968;52.342;5.528;2023-10-31T08:02:49;99991.34;;;9.23;99.10
43161;BME280;40968;52.342;5.528;2023-10-31T08:05:17;100038.56;;;9.45;99.11
43161;BME280;40968;52.342;5.528;2023-10-31T08:07:43;99939.53;;;8.91;99.16
43161;BME280;40968;52.342;5.528;2023-10-31T08:10:10;99926.19;;;8.80;99.33
43161;BME280;40968;52.342;5.528;2023-10-31T08:12:37;100034.78;;;9.48;99.35
43161;BME280;40968;52.342;5.528;2023-10-31T08:15:04;99997.84;;;9.30;99.31
43161;BME280;40968;52.342;5.528;2023-10-31T08:17:31;100043.28;;;9.53;99.49
43161;BME280;40968;52.342;5.528;2023-10-31T08:19:57;100000.66;;;9.28;99.37
43161;BME280;40968;52.342;5.528;2023-10-31T08:22:25;99996.19;;;9.29;99.50
43161;BME280;40968;52.342;5.528;2023-10-31T08:24:52;100011.81;;;9.34;99.69
43161;BME280;40968;52.342;5.528;2023-10-31T08:27:18;100006.13;;;9.38;99.71
43161;BME280;40968;52.342;5.528;2023-10-31T08:29:45;100040.53;;;9.64;99.70
43161;BME280;40968;52.342;5.528;2023-10-31T08:32:12;100051.59;;;9.71;99.78
43161;BME280;40968;52.342;5.528;2023-10-31T08:34:39;100022.47;;;9.56;99.83
43161;BME280;40968;52.342;5.528;2023-10-31T08:37:05;100051.81;;;9.79;99.97
43161;BME280;40968;52.342;5.528;2023-10-31T08:39:33;100049.59;;;9.84;100.00
43161;BME280;40968;52.342;5.528;2023-10-31T08:42:00;100018.91;;;9.67;100.00
43161;BME280;40968;52.342;5.528;2023-10-31T08:44:26;100054.88;;;9.95;100.00
43161;BME280;40968;52.342;5.528;2023-10-31T08:46:53;100052.31;;;9.94;100.00
43161;BME280;40968;52.342;5.528;2023-10-31T08:49:19;99948.88;;;9.29;99.98
43161;BME280;40968;52.342;5.528;2023-10-31T08:51:46;100047.72;;;9.96;99.96
43161;BME280;40968;52.342;5.528;2023-10-31T08:54:13;100004.91;;;9.63;99.95
43161;BME280;40968;52.342;5.528;2023-10-31T08:56:40;100038.63;;;9.87;99.87
43161;BME280;40968;52.342;5.528;2023-10-31T08:59:07;100050.38;;;9.96;100.00
43161;BME280;40968;52.342;5.528;2023-10-31T09:01:34;100081.13;;;10.23;100.00
43161;BME280;40968;52.342;5.528;2023-10-31T09:04:00;100085.84;;;10.31;100.00
43161;BME280;40968;52.342;5.528;2023-10-31T09:06:27;100091.56;;;10.37;100.00
43161;BME280;40968;52.342;5.528;2023-10-31T09:08:53;100055.47;;;10.20;100.00
43161;BME280;40968;52.342;5.528;2023-10-31T09:11:20;100016.69;;;9.93;99.75
43161;BME280;40968;52.342;5.528;2023-10-31T09:13:48;99992.47;;;9.74;99.47
43161;BME280;40968;52.342;5.528;2023-10-31T09:16:15;100014.28;;;9.90;99.17
43161;BME280;40968;52.342;5.528;2023-10-31T09:18:41;100103.31;;;10.46;99.27
43161;BME280;40968;52.342;5.528;2023-10-31T09:21:08;100013.03;;;9.94;99.25
43161;BME280;40968;52.342;5.528;2023-10-31T09:23:35;100106.63;;;10.59;99.39
43161;BME280;40968;52.342;5.528;2023-10-31T09:26:26;100103.44;;;10.66;99.55
43161;BME280;40968;52.342;5.528;2023-10-31T09:28:55;99985.28;;;9.95;98.92
43161;BME280;40968;52.342;5.528;2023-10-31T09:31:21;99960.88;;;9.89;98.63
43161;BME280;40968;52.342;5.528;2023-10-31T09:33:49;100100.09;;;10.73;98.64
43161;BME280;40968;52.342;5.528;2023-10-31T09:36:15;100086.56;;;10.75;98.72
43161;BME280;40968;52.342;5.528;2023-10-31T09:38:42;100130.16;;;11.08;98.61
43161;BME280;40968;52.342;5.528;2023-10-31T09:41:09;100126.50;;;11.09;98.50
43161;BME280;40968;52.342;5.528;2023-10-31T09:43:35;99952.13;;;10.08;97.90
43161;BME280;40968;52.342;5.528;2023-10-31T09:46:05;100088.59;;;10.92;97.56
43161;BME280;40968;52.342;5.528;2023-10-31T09:48:32;100085.13;;;11.02;97.30
43161;BME280;40968;52.342;5.528;2023-10-31T09:50:59;100151.50;;;11.50;96.76
43161;BME280;40968;52.342;5.528;2023-10-31T09:53:27;100142.19;;;11.54;96.25
43161;BME280;40968;52.342;5.528;2023-10-31T09:55:55;100075.03;;;11.25;95.54
43161;BME280;40968;52.342;5.528;2023-10-31T09:58:22;100127.81;;;11.65;94.98
43161;BME280;40968;52.342;5.528;2023-10-31T10:00:49;100160.34;;;11.91;94.11
43161;BME280;40968;52.342;5.528;2023-10-31T10:03:17;100122.16;;;11.58;93.58
43161;BME280;40968;52.342;5.528;2023-10-31T10:05:44;100098.38;;;11.44;93.25
43161;BME280;40968;52.342;5.528;2023-10-31T10:08:10;100096.53;;;11.35;93.54
43161;BME280;40968;52.342;5.528;2023-10-31T10:10:37;99985.97;;;10.71;93.77
43161;BME280;40968;52.342;5.528;2023-10-31T10:13:03;100045.75;;;11.02;94.13
43161;BME280;40968;52.342;5.528;2023-10-31T10:15:30;100178.69;;;11.86;94.64
43161;BME280;40968;52.342;5.528;2023-10-31T10:17:56;100175.19;;;11.86;94.29
43161;BME280;40968;52.342;5.528;2023-10-31T10:20:24;100140.50;;;11.63;94.10
43161;BME280;40968;52.342;5.528;2023-10-31T10:22:51;100177.13;;;11.84;94.13
43161;BME280;40968;52.342;5.528;2023-10-31T10:25:18;100124.94;;;11.47;94.07
43161;BME280;40968;52.342;5.528;2023-10-31T10:27:45;100175.72;;;11.80;94.07
43161;BME280;40968;52.342;5.528;2023-10-31T10:30:13;100183.91;;;11.78;93.91
43161;BME280;40968;52.342;5.528;2023-10-31T10:32:40;100187.72;;;11.75;93.82
43161;BME280;40968;52.342;5.528;2023-10-31T10:35:07;100177.25;;;11.72;93.71
43161;BME280;40968;52.342;5.528;2023-10-31T10:37:37;100185.44;;;11.71;93.73
43161;BME280;40968;52.342;5.528;2023-10-31T10:40:08;100148.63;;;11.42;93.60
43161;BME280;40968;52.342;5.528;2023-10-31T10:42:42;100129.25;;;11.28;93.80
43161;BME280;40968;52.342;5.528;2023-10-31T10:45:12;100194.75;;;11.67;94.00
43161;BME280;40968;52.342;5.528;2023-10-31T10:47:43;100163.03;;;11.41;94.00
43161;BME280;40968;52.342;5.528;2023-10-31T10:50:12;100019.34;;;10.57;94.01
43161;BME280;40968;52.342;5.528;2023-10-31T10:52:45;100172.41;;;11.47;94.07
43161;BME280;40968;52.342;5.528;2023-10-31T10:55:20;100116.94;;;11.16;94.10
43161;BME280;40968;52.342;5.528;2023-10-31T10:57:59;100170.09;;;11.42;94.32
43161;BME280;40968;52.342;5.528;2023-10-31T11:00:27;100143.78;;;11.26;94.33
43161;BME280;40968;52.342;5.528;2023-10-31T11:02:56;100204.06;;;11.63;94.42
43161;BME280;40968;52.342;5.528;2023-10-31T11:05:23;100081.13;;;10.86;94.44
43161;BME280;40968;52.342;5.528;2023-10-31T11:07:52;100178.56;;;11.37;94.38
43161;BME280;40968;52.342;5.528;2023-10-31T11:10:21;100087.75;;;10.82;94.27
43161;BME280;40968;52.342;5.528;2023-10-31T11:12:48;100209.28;;;11.54;94.38
43161;BME280;40968;52.342;5.528;2023-10-31T11:15:17;100142.31;;;11.12;94.12
43161;BME280;40968;52.342;5.528;2023-10-31T11:17:45;100202.50;;;11.50;94.54
43161;BME280;40968;52.342;5.528;2023-10-31T11:20:14;100207.13;;;11.48;94.48
43161;BME280;40968;52.342;5.528;2023-10-31T11:22:42;100220.56;;;11.48;94.49
43161;BME280;40968;52.342;5.528;2023-10-31T11:25:12;100184.03;;;11.26;94.84
43161;BME280;40968;52.342;5.528;2023-10-31T11:27:39;100164.19;;;11.07;94.64
43161;BME280;40968;52.342;5.528;2023-10-31T11:30:08;100208.22;;;11.36;94.67
43161;BME280;40968;52.342;5.528;2023-10-31T11:32:47;100229.44;;;11.49;94.98
43161;BME280;40968;52.342;5.528;2023-10-31T11:35:15;100154.72;;;11.03;95.17
43161;BME280;40968;52.342;5.528;2023-10-31T11:37:42;100117.91;;;10.84;95.21
43161;BME280;40968;52.342;5.528;2023-10-31T11:40:20;100208.66;;;11.41;95.24
43161;BME280;40968;52.342;5.528;2023-10-31T11:42:48;100200.88;;;11.38;95.36
43161;BME280;40968;52.342;5.528;2023-10-31T11:45:26;100226.09;;;11.56;95.43
43161;BME280;40968;52.342;5.528;2023-10-31T11:47:53;100214.41;;;11.67;95.35
43161;BME280;40968;52.342;5.528;2023-10-31T11:50:20;100218.38;;;11.73;95.17
43161;BME280;40968;52.342;5.528;2023-10-31T11:52:58;100099.81;;;11.07;95.12
43161;BME280;40968;52.342;5.528;2023-10-31T11:55:27;100220.25;;;11.92;95.06
43161;BME280;40968;52.342;5.528;2023-10-31T11:57:53;100170.16;;;11.61;94.33
43161;BME280;40968;52.342;5.528;2023-10-31T12:00:21;100217.72;;;11.90;93.93
43161;BME280;40968;52.342;5.528;2023-10-31T12:02:57;100220.03;;;11.95;93.58
43161;BME280;40968;52.342;5.528;2023-10-31T12:05:24;100222.81;;;11.93;93.30
43161;BME280;40968;52.342;5.528;2023-10-31T12:07:51;100107.34;;;11.23;93.15
43161;BME280;40968;52.342;5.528;2023-10-31T12:10:22;100228.81;;;12.07;93.48
43161;BME280;40968;52.342;5.528;2023-10-31T12:12:50;100151.63;;;11.49;93.39
43161;BME280;40968;52.342;5.528;2023-10-31T12:15:16;100246.63;;;12.08;92.96
43161;BME280;40968;52.342;5.528;2023-10-31T12:17:43;100244.94;;;12.07;93.11
43161;BME280;40968;52.342;5.528;2023-10-31T12:20:10;100240.53;;;12.06;92.88
43161;BME280;40968;52.342;5.528;2023-10-31T12:22:37;100137.06;;;11.41;92.63
43161;BME280;40968;52.342;5.528;2023-10-31T12:25:06;100231.63;;;12.05;92.68
43161;BME280;40968;52.342;5.528;2023-10-31T12:27:43;100233.31;;;12.06;92.52
43161;BME280;40968;52.342;5.528;2023-10-31T12:30:13;100198.03;;;11.80;92.60
43161;BME280;40968;52.342;5.528;2023-10-31T12:32:41;100162.78;;;11.54;92.27
43161;BME280;40968;52.342;5.528;2023-10-31T12:35:10;100130.38;;;11.26;91.99
43161;BME280;40968;52.342;5.528;2023-10-31T12:37:42;100258.19;;;11.99;92.04
43161;BME280;40968;52.342;5.528;2023-10-31T12:40:10;100263.81;;;11.96;91.95
43161;BME280;40968;52.342;5.528;2023-10-31T12:42:37;100267.75;;;11.91;91.97
43161;BME280;40968;52.342;5.528;2023-10-31T12:45:05;100271.41;;;11.90;91.97
43161;BME280;40968;52.342;5.528;2023-10-31T12:47:33;100219.75;;;11.57;92.20
43161;BME280;40968;52.342;5.528;2023-10-31T12:50:07;100268.03;;;11.88;92.04
43161;BME280;40968;52.342;5.528;2023-10-31T12:52:50;100275.06;;;11.89;92.24
43161;BME280;40968;52.342;5.528;2023-10-31T12:55:18;100240.84;;;11.72;92.61
43161;BME280;40968;52.342;5.528;2023-10-31T12:57:45;100269.44;;;11.92;92.70
43161;BME280;40968;52.342;5.528;2023-10-31T13:00:13;100242.13;;;11.77;92.69
43161;BME280;40968;52.342;5.528;2023-10-31T13:02:42;100237.44;;;11.70;93.05